Time;durP1;ratioP1;P1;durP2;ratioP2;P2;SDS_P1;SDS_P2;PMS_P1;PMS_P2;Temp;Humidity;BMP_temperature;BMP_pressure;BME280_temperature;BME280_humidity;BME280_pressure;Samples;Min_cycle;Max_cycle;Signal;HPM_P1;HPM_P2
2022/11/26 00:00:24;;;;;;;30.77;14.38;;;;;;;5.85;100.00;99426.31;4879079;29;20131;-78
2022/11/26 00:03:26;;;;;;;26.17;14.55;;;;;;;5.73;100.00;99438.06;4882096;29;20485;-78
2022/11/26 00:06:27;;;;;;;24.25;14.25;;;;;;;5.65;100.00;99427.91;4893034;29;20104;-76
2022/11/26 00:09:15;;;;;;;24.73;14.18;;;;;;;5.56;100.00;99436.94;4893791;29;20032;-83
2022/11/26 00:11:59;;;;;;;22.13;12.50;;;;;;;5.60;100.00;99443.69;4883887;29;20057;-79
2022/11/26 00:14:46;;;;;;;23.35;14.10;;;;;;;5.67;100.00;99444.31;4847059;29;20067;-77
2022/11/26 00:17:30;;;;;;;24.65;13.77;;;;;;;5.64;100.00;99450.50;4860668;29;20507;-78
2022/11/26 00:20:16;;;;;;;26.60;13.57;;;;;;;5.63;100.00;99450.56;4866020;29;20468;-78
2022/11/26 00:23:02;;;;;;;26.63;13.80;;;;;;;5.58;100.00;99453.28;4887404;29;20511;-77
2022/11/26 00:26:01;;;;;;;28.23;14.10;;;;;;;5.58;100.00;99455.88;4877431;29;20036;-77
2022/11/26 00:28:55;;;;;;;26.83;13.80;;;;;;;5.55;100.00;99456.00;4895441;29;20052;-77
2022/11/26 00:31:39;;;;;;;27.00;13.82;;;;;;;5.67;100.00;99460.78;4875181;29;20100;-77
2022/11/26 00:34:24;;;;;;;26.17;13.60;;;;;;;5.65;100.00;99465.19;4873284;29;20052;-78
2022/11/26 00:37:39;;;;;;;25.25;14.25;;;;;;;5.66;100.00;99461.66;4876772;29;20033;-80
2022/11/26 00:40:26;;;;;;;24.25;13.75;;;;;;;5.54;100.00;99467.31;4865977;29;20040;-78
2022/11/26 00:43:12;;;;;;;23.63;12.43;;;;;;;5.44;100.00;99464.19;4901581;29;20084;-77
2022/11/26 00:45:57;;;;;;;20.63;11.18;;;;;;;5.42;100.00;99458.22;4880729;29;20287;-79
2022/11/26 00:48:42;;;;;;;17.65;10.60;;;;;;;5.39;100.00;99471.31;4880308;29;20139;-76
2022/11/26 00:51:27;;;;;;;17.80;9.52;;;;;;;5.42;100.00;99464.25;4867259;29;20056;-78
2022/11/26 00:54:13;;;;;;;16.48;8.98;;;;;;;5.38;100.00;99473.09;4864760;29;20044;-77
2022/11/26 00:56:58;;;;;;;20.27;11.13;;;;;;;5.26;100.00;99473.50;4862131;29;20053;-80
2022/11/26 00:59:43;;;;;;;18.08;10.48;;;;;;;5.25;100.00;99479.59;4869886;29;20147;-77
2022/11/26 01:02:27;;;;;;;15.80;10.20;;;;;;;5.34;100.00;99481.88;4894720;29;20044;-78
2022/11/26 01:05:13;;;;;;;16.40;9.95;;;;;;;5.38;100.00;99487.81;4890307;29;20373;-78
2022/11/26 01:08:01;;;;;;;17.55;10.13;;;;;;;5.41;100.00;99492.91;4887291;29;20154;-77
2022/11/26 01:10:46;;;;;;;14.05;9.48;;;;;;;5.41;100.00;99493.75;4879973;29;20135;-79
2022/11/26 01:13:31;;;;;;;13.82;9.55;;;;;;;5.45;100.00;99504.06;4888423;29;20189;-80
2022/11/26 01:16:30;;;;;;;17.98;10.82;;;;;;;5.40;100.00;99504.22;4880668;29;20056;-81
2022/11/26 01:19:15;;;;;;;15.70;9.27;;;;;;;5.44;100.00;99500.59;4891428;29;20045;-78
2022/11/26 01:22:00;;;;;;;14.95;9.85;;;;;;;5.43;100.00;99509.31;4882704;29;20052;-77
2022/11/26 01:24:45;;;;;;;17.30;9.73;;;;;;;5.43;100.00;99514.50;4867142;29;20041;-76
2022/11/26 01:27:30;;;;;;;15.02;9.63;;;;;;;5.56;100.00;99507.13;4868916;29;20075;-78
2022/11/26 01:30:19;;;;;;;15.40;9.68;;;;;;;5.63;100.00;99499.94;4881615;29;20060;-78
2022/11/26 01:33:04;;;;;;;15.82;9.55;;;;;;;5.60;100.00;99510.47;4889789;29;20054;-77
2022/11/26 01:35:48;;;;;;;13.93;8.93;;;;;;;5.64;100.00;99506.84;4872447;29;20400;-76
2022/11/26 01:38:33;;;;;;;13.68;8.50;;;;;;;5.70;100.00;99501.41;4866363;29;20044;-77
2022/11/26 01:41:45;;;;;;;12.75;7.68;;;;;;;5.35;100.00;99499.19;4888859;29;20078;-78
2022/11/26 01:44:33;;;;;;;11.60;7.13;;;;;;;5.33;100.00;99506.19;4860975;29;20033;-78
2022/11/26 01:47:28;;;;;;;11.50;6.40;;;;;;;5.34;100.00;99504.44;4871224;29;20127;-78
2022/11/26 01:50:31;;;;;;;9.38;6.07;;;;;;;5.28;100.00;99508.09;4861888;29;20044;-77
2022/11/26 01:53:25;;;;;;;10.65;5.82;;;;;;;5.34;100.00;99507.88;4873860;29;20053;-77
2022/11/26 01:56:13;;;;;;;9.20;5.63;;;;;;;5.27;100.00;99517.63;4866818;29;20074;-76
2022/11/26 01:59:14;;;;;;;8.38;5.25;;;;;;;5.32;100.00;99516.63;4878467;29;20216;-77
2022/11/26 02:01:59;;;;;;;9.43;5.38;;;;;;;5.24;100.00;99520.31;4878262;29;20120;-78
2022/11/26 02:04:54;;;;;;;10.32;5.30;;;;;;;5.22;100.00;99527.34;4868108;29;20048;-79
2022/11/26 02:07:38;;;;;;;8.75;4.97;;;;;;;5.22;100.00;99526.50;4893517;29;20071;-77
2022/11/26 02:10:23;;;;;;;8.63;5.00;;;;;;;5.17;100.00;99531.84;4865874;29;20096;-79
2022/11/26 02:13:08;;;;;;;9.18;5.03;;;;;;;5.14;100.00;99529.34;4886681;29;20045;-77
2022/11/26 02:16:07;;;;;;;8.57;5.22;;;;;;;5.11;100.00;99526.84;4882757;29;20128;-78
2022/11/26 02:19:24;;;;;;;9.10;4.95;;;;;;;5.04;100.00;99532.22;4879114;29;20115;-76
2022/11/26 02:22:37;;;;;;;11.20;5.72;;;;;;;5.05;100.00;99531.34;4869699;29;20049;-79
2022/11/26 02:25:40;;;;;;;8.93;5.20;;;;;;;5.04;100.00;99539.19;4892691;29;20481;-77
2022/11/26 02:28:59;;;;;;;9.20;5.38;;;;;;;5.13;100.00;99541.47;4866409;29;20762;-76
2022/11/26 02:31:51;;;;;;;11.70;5.43;;;;;;;5.11;100.00;99540.69;4896079;29;20063;-78
2022/11/26 02:35:01;;;;;;;7.95;5.25;;;;;;;5.21;100.00;99537.75;4879368;29;20475;-77
2022/11/26 02:37:54;;;;;;;10.35;5.53;;;;;;;5.17;100.00;99543.06;4860552;29;20412;-80
2022/11/26 02:40:39;;;;;;;11.07;5.78;;;;;;;5.17;100.00;99552.63;4892836;29;20116;-78
2022/11/26 02:43:25;;;;;;;12.57;5.65;;;;;;;5.12;100.00;99549.31;4873018;29;20032;-78
2022/11/26 02:46:14;;;;;;;10.43;5.85;;;;;;;5.10;100.00;99556.31;4874217;29;20120;-78
2022/11/26 02:48:59;;;;;;;12.10;6.30;;;;;;;5.21;100.00;99555.94;4887861;29;20049;-79
2022/11/26 02:51:44;;;;;;;10.73;5.28;;;;;;;5.22;100.00;99560.25;4883665;29;20143;-78
2022/11/26 02:54:32;;;;;;;11.25;6.03;;;;;;;5.24;100.00;99566.25;4882588;29;20078;-80
2022/11/26 02:57:20;;;;;;;9.40;5.75;;;;;;;5.10;100.00;99569.31;4883944;29;20099;-79
2022/11/26 03:00:05;;;;;;;11.45;6.25;;;;;;;5.07;100.00;99572.00;4886859;29;20413;-78
2022/11/26 03:02:53;;;;;;;11.10;6.18;;;;;;;4.90;100.00;99570.78;4872781;29;20120;-77
2022/11/26 03:05:40;;;;;;;10.52;6.28;;;;;;;4.91;100.00;99568.16;4869823;29;20457;-78
2022/11/26 03:08:26;;;;;;;11.95;6.38;;;;;;;4.88;100.00;99576.03;4847146;29;20044;-78
2022/11/26 03:11:11;;;;;;;11.60;6.65;;;;;;;4.95;100.00;99562.84;4875257;29;20049;-80
2022/11/26 03:13:55;;;;;;;11.07;6.30;;;;;;;4.93;100.00;99568.09;4882609;29;20123;-78
2022/11/26 03:16:40;;;;;;;11.68;5.78;;;;;;;4.94;100.00;99562.03;4903793;29;20045;-78
2022/11/26 03:19:25;;;;;;;11.15;5.65;;;;;;;4.87;100.00;99571.75;4884196;29;20497;-80
2022/11/26 03:22:11;;;;;;;12.07;5.70;;;;;;;5.02;100.00;99570.41;4877793;29;20131;-77
2022/11/26 03:24:56;;;;;;;12.23;5.63;;;;;;;4.99;100.00;99577.47;4865230;29;20041;-77
2022/11/26 03:27:41;;;;;;;12.05;5.93;;;;;;;4.89;100.00;99571.72;4875317;29;20044;-78
2022/11/26 03:30:25;;;;;;;8.32;4.60;;;;;;;5.11;100.00;99577.03;4880350;29;20067;-80
2022/11/26 03:33:10;;;;;;;10.82;5.65;;;;;;;5.03;100.00;99581.63;4874237;29;20048;-78
2022/11/26 03:35:55;;;;;;;8.98;4.80;;;;;;;5.05;100.00;99585.91;4864723;29;20037;-82
2022/11/26 03:38:41;;;;;;;8.65;4.88;;;;;;;4.96;100.00;99588.78;4852886;29;20135;-77
2022/11/26 03:41:26;;;;;;;8.70;4.65;;;;;;;4.93;100.00;99589.72;4876782;29;20049;-79
2022/11/26 03:44:11;;;;;;;7.72;4.60;;;;;;;4.95;100.00;99589.69;4877287;29;20129;-77
2022/11/26 03:46:55;;;;;;;7.10;4.22;;;;;;;5.17;100.00;99587.22;4874317;29;20056;-78
2022/11/26 03:49:40;;;;;;;7.47;4.28;;;;;;;5.04;100.00;99583.34;4875739;29;20132;-77
2022/11/26 03:52:25;;;;;;;8.23;4.00;;;;;;;5.07;100.00;99580.66;4870499;29;20052;-79
2022/11/26 03:55:10;;;;;;;8.00;3.42;;;;;;;5.01;100.00;99584.28;4892608;29;20152;-79
2022/11/26 03:57:54;;;;;;;7.93;4.35;;;;;;;4.82;100.00;99589.22;4880633;29;20476;-79
2022/11/26 04:00:39;;;;;;;8.38;4.30;;;;;;;4.78;100.00;99595.44;4889049;29;20107;-77
2022/11/26 04:03:24;;;;;;;7.00;3.97;;;;;;;4.75;100.00;99592.94;4881473;29;20053;-78
2022/11/26 04:06:09;;;;;;;6.75;4.03;;;;;;;4.88;100.00;99589.03;4895088;29;20053;-78
2022/11/26 04:08:54;;;;;;;9.30;4.25;;;;;;;4.93;100.00;99591.47;4882790;29;20049;-77
2022/11/26 04:11:39;;;;;;;7.30;3.80;;;;;;;4.94;100.00;99580.22;4881173;29;20127;-76
2022/11/26 04:14:24;;;;;;;7.00;3.70;;;;;;;4.90;100.00;99586.38;4871537;29;20033;-77
2022/11/26 04:17:09;;;;;;;8.60;3.58;;;;;;;4.93;100.00;99591.47;4871004;29;20095;-77
2022/11/26 04:19:54;;;;;;;7.28;3.55;;;;;;;4.93;100.00;99594.94;4885105;29;20032;-79
2022/11/26 04:22:38;;;;;;;7.18;3.72;;;;;;;5.01;100.00;99596.44;4902243;29;20044;-79
2022/11/26 04:25:23;;;;;;;9.55;4.30;;;;;;;5.02;100.00;99606.78;4881728;29;20044;-78
2022/11/26 04:28:09;;;;;;;7.60;4.47;;;;;;;5.07;100.00;99611.81;4898224;29;20047;-77
2022/11/26 04:30:54;;;;;;;8.23;4.10;;;;;;;5.11;100.00;99610.81;4879100;29;20045;-78
2022/11/26 04:33:39;;;;;;;7.25;4.28;;;;;;;5.21;100.00;99613.09;4871710;29;20044;-78
2022/11/26 04:36:26;;;;;;;9.07;3.70;;;;;;;5.16;100.00;99619.31;4897106;29;20081;-78
2022/11/26 04:39:18;;;;;;;8.00;4.10;;;;;;;5.13;100.00;99613.34;4888305;29;20313;-78
2022/11/26 04:42:03;;;;;;;8.07;4.68;;;;;;;5.15;100.00;99620.22;4898573;29;20148;-78
2022/11/26 04:44:48;;;;;;;10.63;5.47;;;;;;;5.15;100.00;99614.16;4877372;29;20563;-77
2022/11/26 04:47:32;;;;;;;11.82;5.15;;;;;;;5.14;100.00;99628.91;4883238;29;20079;-78
2022/11/26 04:50:18;;;;;;;8.77;5.35;;;;;;;5.25;100.00;99630.31;4894871;29;20115;-82
2022/11/26 04:53:03;;;;;;;9.48;4.88;;;;;;;5.32;100.00;99638.75;4882443;29;20049;-77
2022/11/26 04:55:48;;;;;;;8.57;5.55;;;;;;;5.34;100.00;99629.16;4894631;29;20032;-77
2022/11/26 04:58:33;;;;;;;7.88;4.43;;;;;;;5.20;100.00;99634.81;4882493;29;20040;-78
2022/11/26 05:01:17;;;;;;;7.68;4.72;;;;;;;5.19;100.00;99626.16;4869980;29;20127;-79
2022/11/26 05:04:02;;;;;;;6.55;4.55;;;;;;;5.23;100.00;99629.50;4869988;29;20081;-78
2022/11/26 05:06:47;;;;;;;7.72;4.50;;;;;;;5.23;100.00;99627.75;4886853;29;20124;-77
2022/11/26 05:09:32;;;;;;;7.28;3.88;;;;;;;5.24;100.00;99632.03;4885267;29;20040;-79
2022/11/26 05:12:17;;;;;;;7.05;5.03;;;;;;;5.22;100.00;99636.47;4870826;29;20176;-77
2022/11/26 05:15:09;;;;;;;9.48;4.78;;;;;;;5.26;100.00;99643.25;4885930;29;20166;-78
2022/11/26 05:18:04;;;;;;;8.77;5.00;;;;;;;5.27;100.00;99644.94;4934894;29;20151;-77
2022/11/26 05:20:48;;;;;;;9.00;5.18;;;;;;;5.23;100.00;99653.75;4893271;29;20040;-77
2022/11/26 05:23:33;;;;;;;11.20;5.32;;;;;;;5.34;100.00;99660.34;4897522;29;20032;-76
2022/11/26 05:26:18;;;;;;;8.27;5.43;;;;;;;5.40;100.00;99665.34;4905438;29;20095;-79
2022/11/26 05:29:03;;;;;;;10.02;6.20;;;;;;;5.24;100.00;99663.22;4901106;29;20562;-79
2022/11/26 05:31:47;;;;;;;9.50;5.50;;;;;;;5.22;100.00;99670.25;4913735;29;20499;-76
2022/11/26 05:34:32;;;;;;;9.32;5.38;;;;;;;5.41;100.00;99665.28;4936839;29;20238;-84
2022/11/26 05:37:17;;;;;;;8.55;5.32;;;;;;;5.41;100.00;99675.69;4920601;29;20048;-79
2022/11/26 05:40:02;;;;;;;7.63;4.43;;;;;;;5.51;100.00;99673.63;4907601;29;20122;-77
2022/11/26 05:42:47;;;;;;;11.85;5.03;;;;;;;5.51;100.00;99681.44;4904499;29;20712;-78
2022/11/26 05:45:32;;;;;;;9.60;4.85;;;;;;;5.52;100.00;99680.53;4892290;29;20036;-80
2022/11/26 05:48:16;;;;;;;8.10;4.55;;;;;;;5.32;100.00;99680.34;4892867;29;20044;-76
2022/11/26 05:51:02;;;;;;;7.70;4.68;;;;;;;5.37;100.00;99688.84;4915505;29;20071;-78
2022/11/26 05:53:46;;;;;;;7.70;4.13;;;;;;;5.38;100.00;99695.72;4907761;29;20131;-76
2022/11/26 05:56:32;;;;;;;6.97;4.35;;;;;;;5.41;100.00;99687.81;4915005;29;20194;-79
2022/11/26 05:59:16;;;;;;;7.78;4.25;;;;;;;5.48;100.00;99697.13;4902772;29;20048;-77
2022/11/26 06:02:01;;;;;;;5.97;3.83;;;;;;;5.57;100.00;99695.09;4906086;29;20150;-77
2022/11/26 06:04:45;;;;;;;7.10;3.63;;;;;;;5.60;100.00;99697.63;4915772;29;20047;-77
2022/11/26 06:07:30;;;;;;;6.05;3.40;;;;;;;5.62;100.00;99694.06;4907191;29;20051;-78
2022/11/26 06:10:15;;;;;;;5.75;3.00;;;;;;;5.60;100.00;99705.44;4904188;29;20035;-76
2022/11/26 06:13:00;;;;;;;4.95;3.35;;;;;;;5.66;100.00;99702.63;4905756;29;20134;-78
2022/11/26 06:15:45;;;;;;;6.38;3.42;;;;;;;5.73;100.00;99704.09;4893370;29;20051;-79
2022/11/26 06:18:30;;;;;;;7.05;4.10;;;;;;;5.65;100.00;99717.38;4906482;29;20374;-78
2022/11/26 06:21:15;;;;;;;7.03;4.22;;;;;;;5.60;100.00;99721.03;4891713;29;20100;-76
2022/11/26 06:23:59;;;;;;;6.05;3.65;;;;;;;5.55;100.00;99726.34;4887956;29;20036;-76
2022/11/26 06:26:44;;;;;;;5.85;3.95;;;;;;;5.57;100.00;99729.75;4918441;29;20066;-78
2022/11/26 06:29:29;;;;;;;7.47;4.13;;;;;;;5.64;100.00;99733.03;4907263;29;20038;-77
2022/11/26 06:32:13;;;;;;;6.07;4.15;;;;;;;5.60;100.00;99734.03;4919574;29;20175;-79
2022/11/26 06:35:00;;;;;;;5.18;3.55;;;;;;;5.61;100.00;99733.97;4905257;29;20087;-79
2022/11/26 06:37:45;;;;;;;7.90;3.83;;;;;;;5.66;100.00;99737.25;4916180;29;20036;-78
2022/11/26 06:40:29;;;;;;;6.25;4.20;;;;;;;5.60;100.00;99749.63;4917321;29;20123;-79
2022/11/26 06:43:14;;;;;;;16.33;9.00;;;;;;;6.10;100.00;99753.22;4896198;29;20119;-79
2022/11/26 06:46:07;;;;;;;8.32;5.13;;;;;;;5.99;100.00;99762.19;4904472;29;20050;-75
2022/11/26 06:48:52;;;;;;;12.63;6.43;;;;;;;6.06;100.00;99765.47;4893054;29;20223;-78
2022/11/26 06:51:37;;;;;;;8.00;5.32;;;;;;;6.84;100.00;99761.94;4891640;29;20131;-75
2022/11/26 06:54:21;;;;;;;7.97;3.88;;;;;;;6.40;100.00;99769.53;4886528;29;20064;-76
2022/11/26 06:57:06;;;;;;;8.63;5.78;;;;;;;5.94;100.00;99766.69;4887455;29;20112;-81
2022/11/26 06:59:51;;;;;;;5.53;3.47;;;;;;;5.73;100.00;99770.88;4893351;29;20195;-78
2022/11/26 07:02:37;;;;;;;7.63;4.43;;;;;;;5.77;100.00;99764.66;4905993;29;20393;-79
2022/11/26 07:05:21;;;;;;;11.93;6.18;;;;;;;5.88;100.00;99775.56;4909820;29;20400;-78
2022/11/26 07:08:06;;;;;;;14.88;8.93;;;;;;;5.56;100.00;99780.06;4909036;29;20453;-79
2022/11/26 07:10:51;;;;;;;12.88;7.50;;;;;;;5.48;100.00;99788.13;4911698;29;20135;-77
2022/11/26 07:13:36;;;;;;;12.73;7.03;;;;;;;6.60;100.00;99782.72;4893067;29;20147;-76
2022/11/26 07:16:21;;;;;;;13.43;7.93;;;;;;;6.03;100.00;99787.22;4900785;29;20054;-77
2022/11/26 07:19:06;;;;;;;18.77;10.60;;;;;;;5.96;100.00;99795.25;4900560;29;20641;-77
2022/11/26 07:21:50;;;;;;;13.63;7.72;;;;;;;5.95;100.00;99798.78;4890913;29;20051;-76
2022/11/26 07:24:35;;;;;;;14.25;8.25;;;;;;;5.84;100.00;99799.13;4942018;29;20042;-77
2022/11/26 07:27:20;;;;;;;7.55;5.13;;;;;;;5.68;100.00;99799.59;4884529;29;20444;-76
2022/11/26 07:30:06;;;;;;;8.98;5.75;;;;;;;6.06;100.00;99801.91;4918354;29;20044;-76
2022/11/26 07:32:50;;;;;;;10.70;5.60;;;;;;;5.97;100.00;99794.38;4901521;29;20071;-77
2022/11/26 07:35:36;;;;;;;8.40;3.97;;;;;;;6.04;100.00;99812.38;4926481;29;20301;-80
2022/11/26 07:38:20;;;;;;;8.02;4.88;;;;;;;6.04;100.00;99804.56;4897792;29;20064;-78
2022/11/26 07:41:09;;;;;;;9.88;5.85;;;;;;;6.11;100.00;99812.16;4904830;29;20043;-78
2022/11/26 07:43:53;;;;;;;12.07;6.63;;;;;;;6.25;100.00;99822.13;4916638;29;20353;-77
2022/11/26 07:46:39;;;;;;;9.63;5.50;;;;;;;5.98;100.00;99815.13;4905301;29;20495;-77
2022/11/26 07:49:23;;;;;;;12.00;6.65;;;;;;;5.97;100.00;99818.66;4903967;29;20593;-79
2022/11/26 07:52:08;;;;;;;8.27;5.07;;;;;;;7.36;100.00;99820.81;4894796;29;20063;-78
2022/11/26 07:54:53;;;;;;;10.75;5.72;;;;;;;6.64;100.00;99811.22;4899880;29;20054;-78
2022/11/26 07:57:38;;;;;;;5.55;3.50;;;;;;;6.26;100.00;99824.66;4906187;29;20126;-79
2022/11/26 08:00:23;;;;;;;7.25;4.15;;;;;;;6.25;100.00;99822.13;4905806;29;20478;-77
2022/11/26 08:03:08;;;;;;;8.10;3.60;;;;;;;6.24;100.00;99828.22;4895326;29;20522;-78
2022/11/26 08:05:53;;;;;;;5.68;3.40;;;;;;;6.32;100.00;99836.63;4903821;29;20032;-80
2022/11/26 08:08:38;;;;;;;8.10;4.05;;;;;;;6.45;100.00;99838.78;4910600;29;20070;-86
2022/11/26 08:11:27;;;;;;;7.55;4.47;;;;;;;6.51;100.00;99839.44;4898932;29;20032;-80
2022/11/26 08:14:12;;;;;;;7.75;3.95;;;;;;;6.31;100.00;99834.91;4889950;29;20044;-79
2022/11/26 08:16:57;;;;;;;7.32;3.92;;;;;;;6.74;100.00;99836.94;4897350;29;20521;-83
2022/11/26 08:19:41;;;;;;;7.32;3.75;;;;;;;6.64;100.00;99849.44;4905834;29;20122;-83
2022/11/26 08:22:28;;;;;;;9.85;4.13;;;;;;;6.85;100.00;99845.22;4895773;29;20046;-85
2022/11/26 08:25:16;;;;;;;6.18;3.35;;;;;;;6.68;100.00;99851.03;4895751;29;20050;-81
2022/11/26 08:28:01;;;;;;;6.60;3.75;;;;;;;6.77;100.00;99850.69;4905055;29;20059;-80
2022/11/26 08:30:46;;;;;;;6.43;3.90;;;;;;;6.58;100.00;99854.84;4894134;29;20035;-82
2022/11/26 08:33:31;;;;;;;5.63;3.60;;;;;;;6.43;100.00;99861.44;4894756;29;20040;-80
2022/11/26 08:36:18;;;;;;;5.47;3.60;;;;;;;6.56;100.00;99859.28;4904016;29;20142;-81
2022/11/26 08:39:02;;;;;;;6.65;4.10;;;;;;;6.56;100.00;99862.69;4895469;29;20051;-82
2022/11/26 08:41:49;;;;;;;6.40;4.00;;;;;;;6.57;100.00;99867.03;4892526;29;20131;-81
2022/11/26 08:44:35;;;;;;;5.60;3.60;;;;;;;6.60;100.00;99855.63;4923229;29;20042;-80
2022/11/26 08:47:21;;;;;;;6.82;4.00;;;;;;;6.64;100.00;99862.47;4908350;29;20067;-81
2022/11/26 08:50:10;;;;;;;6.80;3.47;;;;;;;6.80;100.00;99846.28;4906235;29;20082;-84
2022/11/26 08:52:54;;;;;;;8.10;3.72;;;;;;;6.58;100.00;99860.91;4894045;29;20043;-82
2022/11/26 08:55:41;;;;;;;7.05;3.58;;;;;;;6.73;100.00;99858.66;4913042;29;20447;-81
2022/11/26 08:58:28;;;;;;;8.32;3.60;;;;;;;6.67;100.00;99864.97;4930785;29;20062;-82
2022/11/26 09:01:23;;;;;;;5.88;3.75;;;;;;;6.87;100.00;99871.22;4920989;29;20040;-82
2022/11/26 09:04:08;;;;;;;6.18;3.60;;;;;;;6.65;100.00;99871.97;4909813;29;20109;-81
2022/11/26 09:06:53;;;;;;;5.50;3.15;;;;;;;6.66;100.00;99871.03;4919249;29;20467;-82
2022/11/26 09:09:39;;;;;;;5.45;2.85;;;;;;;6.49;100.00;99877.72;4904671;29;20055;-82
2022/11/26 09:12:24;;;;;;;6.45;3.17;;;;;;;6.73;100.00;99888.19;4908400;29;20054;-82
2022/11/26 09:15:09;;;;;;;6.30;3.03;;;;;;;6.89;100.00;99875.47;4904134;29;20067;-82
2022/11/26 09:17:54;;;;;;;6.65;3.00;;;;;;;7.00;100.00;99877.69;4915170;29;20476;-82
2022/11/26 09:20:39;;;;;;;5.60;3.05;;;;;;;7.03;100.00;99882.78;4904910;29;20502;-84
2022/11/26 09:23:23;;;;;;;6.93;3.45;;;;;;;7.06;100.00;99876.63;4912697;29;20134;-81
2022/11/26 09:26:12;;;;;;;5.50;3.00;;;;;;;7.07;100.00;99882.66;4889416;29;20636;-82
2022/11/26 09:28:59;;;;;;;5.70;3.30;;;;;;;7.23;100.00;99882.97;4907920;29;20458;-82
2022/11/26 09:31:45;;;;;;;7.60;3.88;;;;;;;7.17;100.00;99877.97;4897991;29;20133;-83
2022/11/26 09:34:30;;;;;;;8.23;3.15;;;;;;;7.34;100.00;99888.66;4892692;29;20095;-81
2022/11/26 09:37:17;;;;;;;6.75;3.25;;;;;;;7.44;100.00;99889.13;4916956;29;20170;-83
2022/11/26 09:40:03;;;;;;;6.32;3.70;;;;;;;7.55;100.00;99893.09;4891653;29;20047;-82
2022/11/26 09:43:04;;;;;;;4.93;3.08;;;;;;;7.45;100.00;99901.28;4910123;29;20505;-80
2022/11/26 09:45:54;;;;;;;10.18;4.70;;;;;;;7.43;100.00;99899.59;4896699;29;20052;-81
2022/11/26 09:48:43;;;;;;;5.50;3.28;;;;;;;7.56;100.00;99897.38;4904919;29;20036;-81
2022/11/26 09:51:29;;;;;;;7.25;3.45;;;;;;;7.67;100.00;99900.44;4904589;29;20043;-82
2022/11/26 09:54:20;;;;;;;7.68;3.22;;;;;;;7.59;100.00;99898.13;4892894;29;20075;-82
2022/11/26 09:57:25;;;;;;;5.90;2.88;;;;;;;7.84;100.00;99902.41;4908851;29;20047;-81
2022/11/26 10:00:31;;;;;;;9.45;3.45;;;;;;;7.75;100.00;99905.38;4913609;29;20506;-82
2022/11/26 10:03:23;;;;;;;6.65;2.72;;;;;;;7.81;100.00;99896.44;4903719;29;20391;-81
2022/11/26 10:07:03;;;;;;;6.55;2.80;;;;;;;8.03;100.00;99903.44;4879752;29;20127;-82
2022/11/26 10:10:16;;;;;;;6.10;3.00;;;;;;;8.28;98.88;99898.06;4852011;29;20141;-80
2022/11/26 10:13:42;;;;;;;4.75;2.40;;;;;;;8.88;94.56;99891.25;4865342;29;20060;-82
2022/11/26 10:16:41;;;;;;;7.57;3.05;;;;;;;9.20;93.33;99898.59;4848540;29;20049;-82
2022/11/26 10:19:42;;;;;;;6.88;2.55;;;;;;;9.46;90.96;99893.97;4855590;29;20184;-81
2022/11/26 10:23:09;;;;;;;9.02;2.53;;;;;;;9.93;87.90;99899.66;4861715;29;20132;-81
2022/11/26 10:26:04;;;;;;;6.15;3.10;;;;;;;9.79;86.39;99905.56;4849438;29;20072;-81
2022/11/26 10:29:18;;;;;;;6.75;2.88;;;;;;;9.94;85.95;99902.19;4860600;29;20049;-80
2022/11/26 10:32:25;;;;;;;7.25;2.92;;;;;;;10.06;83.70;99892.91;4862481;29;20076;-81
2022/11/26 10:35:26;;;;;;;5.20;2.50;;;;;;;10.77;80.45;99884.25;4889469;29;20041;-82
2022/11/26 10:38:13;;;;;;;5.78;2.22;;;;;;;10.49;80.74;99883.03;4868109;29;20137;-80
2022/11/26 10:40:58;;;;;;;7.55;2.53;;;;;;;10.65;79.89;99881.34;4871070;29;20150;-80
2022/11/26 10:43:52;;;;;;;4.53;2.10;;;;;;;10.62;80.34;99881.50;4907577;29;20394;-83
2022/11/26 10:46:37;;;;;;;4.40;2.13;;;;;;;12.08;74.75;99882.50;4925424;29;20032;-81
2022/11/26 10:49:25;;;;;;;3.88;2.17;;;;;;;12.06;72.71;99887.81;4899569;29;20105;-81
2022/11/26 10:52:22;;;;;;;4.55;2.42;;;;;;;11.75;73.42;99881.66;4892184;29;20786;-82
2022/11/26 10:55:33;;;;;;;5.65;2.20;;;;;;;11.77;73.98;99877.19;4903036;29;20082;-84
2022/11/26 10:58:36;;;;;;;4.88;1.95;;;;;;;12.32;71.22;99879.41;4862918;29;20416;-81
2022/11/26 11:01:22;;;;;;;6.35;2.55;;;;;;;11.96;72.40;99881.41;4905085;29;20535;-83
2022/11/26 11:04:21;;;;;;;5.30;1.90;;;;;;;12.01;73.60;99876.72;4903740;29;20075;-82
2022/11/26 11:07:44;;;;;;;4.50;1.75;;;;;;;12.76;69.97;99872.44;4901408;29;20044;-83
2022/11/26 11:10:29;;;;;;;5.40;1.83;;;;;;;12.35;70.48;99884.50;4918305;29;20046;-81
2022/11/26 11:13:17;;;;;;;3.90;1.58;;;;;;;12.10;71.66;99872.78;4915983;29;20070;-83
2022/11/26 11:16:02;;;;;;;3.45;1.30;;;;;;;13.00;68.92;99871.06;4902813;29;20059;-82
2022/11/26 11:18:51;;;;;;;3.95;1.60;;;;;;;12.94;68.96;99872.28;4901052;29;20119;-83
2022/11/26 11:21:38;;;;;;;6.15;1.85;;;;;;;12.21;72.72;99871.31;4912818;29;20483;-84
2022/11/26 11:24:26;;;;;;;5.35;1.85;;;;;;;12.29;73.36;99879.59;4891192;29;20042;-83
2022/11/26 11:27:38;;;;;;;3.60;1.80;;;;;;;11.86;72.65;99870.59;4918704;29;20060;-83
2022/11/26 11:30:28;;;;;;;6.13;2.17;;;;;;;11.90;74.49;99872.09;4915378;29;20384;-82
2022/11/26 11:33:22;;;;;;;3.70;1.55;;;;;;;13.07;70.31;99875.00;4904709;29;20138;-83
2022/11/26 11:36:10;;;;;;;6.82;2.17;;;;;;;11.22;74.53;99876.66;4888846;29;20039;-83
2022/11/26 11:38:57;;;;;;;3.75;1.98;;;;;;;10.70;78.89;99874.09;4903107;29;20040;-83
2022/11/26 11:41:47;;;;;;;5.05;1.60;;;;;;;10.53;80.78;99882.78;4925166;29;20039;-83
2022/11/26 11:44:38;;;;;;;4.53;2.28;;;;;;;10.06;83.62;99879.81;4905151;29;20047;-81
2022/11/26 11:47:24;;;;;;;;;;;;;;;9.50;83.12;99871.97;4905633;29;20066;-81
2022/11/26 11:50:49;;;;;;;7.18;2.42;;;;;;;9.40;85.07;99871.53;4890813;29;19927;-82
2022/11/26 11:54:11;;;;;;;6.10;2.22;;;;;;;9.55;83.39;99875.22;4834709;29;20530;-84
2022/11/26 11:57:39;;;;;;;8.55;2.50;;;;;;;9.68;82.88;99869.41;4837460;29;20613;-82
2022/11/26 12:01:21;;;;;;;5.20;2.13;;;;;;;9.52;82.28;99877.97;4812290;29;20050;-82
2022/11/26 12:04:46;;;;;;;5.22;2.58;;;;;;;9.60;81.80;99872.38;4767113;30;20570;-83
2022/11/26 12:07:36;;;;;;;6.78;2.15;;;;;;;9.73;80.43;99875.25;4744613;30;20197;-84
2022/11/26 12:10:31;;;;;;;7.30;2.50;;;;;;;9.20;83.51;99882.91;4778107;30;20115;-80
2022/11/26 12:13:20;;;;;;;6.53;2.50;;;;;;;9.09;84.21;99880.78;4774257;30;20074;-81
2022/11/26 12:16:08;;;;;;;5.05;2.10;;;;;;;9.06;84.55;99888.75;4777548;30;20112;-82
2022/11/26 12:19:11;;;;;;;5.38;2.10;;;;;;;8.99;85.88;99883.78;4741446;30;20204;-83
2022/11/26 12:22:03;;;;;;;7.78;2.30;;;;;;;9.27;83.81;99889.56;4754283;30;20440;-85
2022/11/26 12:25:22;;;;;;;7.45;2.40;;;;;;;9.17;82.53;99896.97;4769454;30;20119;-80
2022/11/26 12:28:14;;;;;;;6.28;2.47;;;;;;;9.11;84.24;99899.84;4855855;29;20064;-82
2022/11/26 12:31:05;;;;;;;5.32;2.60;;;;;;;8.99;84.47;99899.47;4843437;29;20061;-82
2022/11/26 12:33:56;;;;;;;6.80;2.33;;;;;;;9.83;81.33;99909.69;4863201;28;20504;-81
2022/11/26 12:36:50;;;;;;;4.40;2.00;;;;;;;10.20;79.65;99905.31;4905633;29;20055;-84
2022/11/26 12:39:46;;;;;;;3.90;1.67;;;;;;;9.83;81.52;99900.09;4924552;29;20127;-82
2022/11/26 12:42:41;;;;;;;4.85;2.05;;;;;;;9.90;81.95;99907.66;4904194;29;20392;-82
2022/11/26 12:45:41;;;;;;;6.13;2.20;;;;;;;9.68;83.05;99900.81;4892336;29;20071;-82
2022/11/26 12:48:37;;;;;;;5.23;2.20;;;;;;;10.16;80.75;99900.31;4913641;29;20127;-81
2022/11/26 12:51:30;;;;;;;4.47;1.73;;;;;;;9.76;82.67;99900.47;4918054;29;20091;-83
2022/11/26 12:54:27;;;;;;;8.60;2.67;;;;;;;9.29;85.30;99905.19;4897720;29;20035;-81
2022/11/26 12:57:27;;;;;;;5.22;2.47;;;;;;;9.37;84.83;99892.59;4921130;29;20052;-81
2022/11/26 13:00:21;;;;;;;4.90;1.98;;;;;;;9.79;84.25;99905.56;4894445;29;20456;-79
2022/11/26 13:03:14;;;;;;;5.22;2.47;;;;;;;9.64;84.07;99907.97;4919124;29;20558;-81
2022/11/26 13:06:05;;;;;;;3.70;2.55;;;;;;;9.64;84.51;99900.13;4911160;29;20047;-82
2022/11/26 13:08:50;;;;;;;5.60;2.28;;;;;;;9.72;84.56;99894.53;4915850;29;20047;-83
2022/11/26 13:11:43;;;;;;;10.15;2.67;;;;;;;9.57;85.14;99896.94;4920646;29;20066;-79
2022/11/26 13:15:09;;;;;;;6.15;2.50;;;;;;;9.79;84.96;99900.31;4905720;29;20043;-81
2022/11/26 13:17:58;;;;;;;7.85;2.38;;;;;;;10.06;83.12;99899.91;4892596;29;20505;-81